Главная страница
METAR-TAF:

METAR-TAF

Аэропорты :

Бингемтон, Нью-Йорк, США

широта: 42-12-28N, долгота: 075-58-53W, высота над уровнем моря: 496 м

Текущие метеонаблюдения

Эта сводка был подготовлена 38 минут назад, в 13:53 UTC
Ветер 4 Узел от западный
Температура 22°C
Влажность 78%
Давление 1020 hPa
Видимость: 16.1 км
ясное небо

METAR: KBGM 161353Z 26004KT 10SM CLR 22/18 A3013 RMK AO2 SLP192 T02220178

Время: 10:31 (14:31 UTC)

Прогноз

Эта сводка был подготовлена 3 часа и 7 минут назад, в 11:24 UTC
Прогноз действительный с 16-го 12 UTC до 17-го 12 UTC
Ветер 5 Узел от западный
Видимость: 10 км
Отдельные облака на высоте 25000 фута
С 16-го 1500 UTC
Ветер 6 Узел от западный
Видимость: 10 км
Отдельные облака на высоте 5000 фута
С 16-го 2300 UTC
Ветер 4 Узел от юго-западный
Видимость: 10 км
Рассеянная облачность на высоте 4500 фута

TAF: KBGM 161124Z 1612/1712 27005KT P6SM SCT250 FM161500 28006KT P6SM SCT050 FM162300 22004KT P6SM BKN045

Метеонаблюдения и прогнозы для более 4000 аэропортов (сводки METAR и TAF).

Имеющиеся станции представлены на карте желтыми и красными точками.

Чтобы увидеть название станции, наведите на нее мышь.

Затем щелкните, чтобы увидеть метеонаблюдения и метеопрогнозы.

Управление картой: чтобы увеличить масштаб, щелкните зеленые кнопки с черным крестиком; чтобы уменьшить масштаб, щелкните зеленую кнопку с тире; для просмотра соседних карт щелкайте зеленые стрелки.


METAR-TAF: